createdAt,value
2022-12-17T00:01:07.627Z,81.50
2022-12-17T00:03:49.994Z,81.75
2022-12-17T00:06:35.272Z,81.91
2022-12-17T00:09:18.326Z,82.47
2022-12-17T00:12:00.545Z,82.15
2022-12-17T00:14:42.755Z,82.04
2022-12-17T00:17:24.922Z,81.82
2022-12-17T00:20:07.160Z,81.55
2022-12-17T00:22:54.406Z,81.56
2022-12-17T00:25:36.599Z,81.50
2022-12-17T00:28:18.844Z,81.67
2022-12-17T00:31:15.637Z,81.24
2022-12-17T00:33:57.986Z,81.05
2022-12-17T00:36:49.633Z,80.95
2022-12-17T00:39:34.416Z,80.86
2022-12-17T00:42:16.647Z,80.57
2022-12-17T00:44:58.815Z,80.33
2022-12-17T00:47:42.353Z,80.32
2022-12-17T00:50:24.537Z,80.50
2022-12-17T00:53:08.075Z,80.22
2022-12-17T00:55:52.928Z,80.10
2022-12-17T00:58:35.133Z,80.04
2022-12-17T01:01:17.588Z,80.05
2022-12-17T01:03:59.886Z,80.29
2022-12-17T01:06:47.869Z,79.67
2022-12-17T01:09:30.026Z,80.00
2022-12-17T01:12:14.827Z,79.55
2022-12-17T01:15:05.422Z,80.05
2022-12-17T01:17:47.623Z,80.83
2022-12-17T01:20:29.994Z,80.68
2022-12-17T01:23:12.182Z,80.27
2022-12-17T01:26:08.960Z,80.24
2022-12-17T01:28:54.551Z,80.43
2022-12-17T01:31:36.747Z,79.98
2022-12-17T01:34:18.756Z,79.78
2022-12-17T01:37:03.200Z,79.64
2022-12-17T01:39:46.504Z,79.69
2022-12-17T01:42:30.079Z,79.64
2022-12-17T01:45:14.832Z,79.71
2022-12-17T01:48:01.118Z,79.75
2022-12-17T01:50:45.696Z,79.78
2022-12-17T01:53:30.559Z,79.65
2022-12-17T01:56:14.048Z,79.60
2022-12-17T01:58:57.362Z,79.40
2022-12-17T02:01:57.568Z,79.26
2022-12-17T02:04:40.579Z,79.38
2022-12-17T02:07:39.520Z,79.15
2022-12-17T02:10:37.758Z,79.31
2022-12-17T02:13:28.166Z,79.50
2022-12-17T02:16:16.037Z,79.99
2022-12-17T02:19:11.387Z,79.46
2022-12-17T02:21:55.776Z,79.40
2022-12-17T02:24:44.726Z,79.07
2022-12-17T02:27:31.016Z,79.17
2022-12-17T02:30:18.516Z,78.88
2022-12-17T02:33:03.027Z,78.57
2022-12-17T02:35:48.022Z,78.74
2022-12-17T02:38:35.150Z,78.58
2022-12-17T02:41:20.498Z,78.55
2022-12-17T02:44:06.150Z,78.75
2022-12-17T02:46:48.593Z,79.13
2022-12-17T02:49:30.812Z,78.87
2022-12-17T02:52:13.438Z,78.95
2022-12-17T02:54:55.674Z,79.18
2022-12-17T02:57:42.337Z,79.35
2022-12-17T03:00:30.528Z,79.59
2022-12-17T03:03:14.407Z,80.06
2022-12-17T03:05:56.738Z,79.95
2022-12-17T03:08:38.983Z,79.76
2022-12-17T03:11:21.180Z,79.61
2022-12-17T03:14:03.399Z,79.91
2022-12-17T03:16:48.898Z,79.59
2022-12-17T03:19:31.344Z,80.09
2022-12-17T03:22:13.691Z,80.25
2022-12-17T03:24:55.949Z,80.50
2022-12-17T03:27:38.186Z,80.93
2022-12-17T03:30:21.500Z,80.75
2022-12-17T03:33:06.276Z,81.22
2022-12-17T03:35:48.501Z,81.66
2022-12-17T03:38:30.700Z,81.70
2022-12-17T03:41:13.497Z,81.79
2022-12-17T03:43:55.775Z,81.25
2022-12-17T03:46:37.957Z,81.31
2022-12-17T03:49:22.923Z,81.55
2022-12-17T03:52:05.182Z,81.74
2022-12-17T03:54:47.387Z,81.92
2022-12-17T03:57:29.583Z,81.51
2022-12-17T04:00:11.774Z,81.28
2022-12-17T04:02:57.034Z,81.57
2022-12-17T04:05:50.427Z,81.79
2022-12-17T04:08:32.702Z,81.88
2022-12-17T04:11:14.886Z,82.33
2022-12-17T04:14:05.664Z,82.52
2022-12-17T04:16:47.890Z,82.65
2022-12-17T04:19:30.086Z,82.19
2022-12-17T04:22:14.968Z,82.42
2022-12-17T04:24:57.176Z,83.48
2022-12-17T04:27:42.211Z,83.97
2022-12-17T04:30:25.458Z,83.79
2022-12-17T04:33:07.652Z,83.35
2022-12-17T04:35:49.898Z,83.03
2022-12-17T04:38:34.639Z,82.96
2022-12-17T04:41:16.836Z,83.32
2022-12-17T04:44:02.915Z,83.38
2022-12-17T04:46:45.531Z,83.34
2022-12-17T04:49:27.785Z,83.50
2022-12-17T04:52:09.962Z,83.25
2022-12-17T04:54:54.826Z,82.98
2022-12-17T04:57:37.027Z,83.23
2022-12-17T05:00:19.716Z,83.83
2022-12-17T05:03:02.090Z,84.03
2022-12-17T05:05:53.251Z,83.95
2022-12-17T05:08:41.090Z,84.83
2022-12-17T05:11:26.278Z,84.39
2022-12-17T05:14:08.448Z,83.88
2022-12-17T05:17:05.579Z,83.22
2022-12-17T05:19:47.815Z,83.08
2022-12-17T05:22:29.994Z,82.90
2022-12-17T05:25:12.160Z,82.75
2022-12-17T05:27:56.941Z,82.19
2022-12-17T05:30:39.180Z,82.17
2022-12-17T05:33:21.423Z,82.24
2022-12-17T05:36:03.905Z,82.09
2022-12-17T05:38:46.106Z,81.79
2022-12-17T05:41:28.305Z,81.68
2022-12-17T05:44:13.078Z,81.34
2022-12-17T05:46:55.348Z,81.48
2022-12-17T05:49:37.612Z,81.52
2022-12-17T05:52:20.031Z,81.22
2022-12-17T05:55:02.018Z,81.04
2022-12-17T05:57:44.259Z,81.04
2022-12-17T06:00:30.376Z,80.71
2022-12-17T06:03:14.006Z,80.69
2022-12-17T06:05:56.296Z,80.84
2022-12-17T06:08:38.623Z,80.53
2022-12-17T06:11:21.118Z,80.52
2022-12-17T06:14:03.318Z,80.56
2022-12-17T06:16:48.192Z,80.12
2022-12-17T06:19:30.401Z,80.17
2022-12-17T06:22:12.581Z,79.94
2022-12-17T06:24:54.809Z,79.80
2022-12-17T06:27:37.028Z,79.58
2022-12-17T06:30:19.987Z,79.44
2022-12-17T06:33:04.813Z,79.66
2022-12-17T06:35:47.077Z,79.31
2022-12-17T06:38:29.283Z,79.34
2022-12-17T06:41:11.497Z,79.30
2022-12-17T06:43:53.684Z,79.16
2022-12-17T06:46:36.542Z,78.96
2022-12-17T06:49:21.428Z,78.93
2022-12-17T06:52:03.661Z,78.64
2022-12-17T06:54:45.869Z,78.65
2022-12-17T06:57:28.084Z,78.51
2022-12-17T07:00:10.431Z,78.48
2022-12-17T07:02:52.782Z,78.43
2022-12-17T07:05:37.811Z,78.26
2022-12-17T07:08:20.456Z,78.07
2022-12-17T07:11:02.683Z,78.22
2022-12-17T07:13:44.942Z,77.94
2022-12-17T07:16:27.200Z,78.21
2022-12-17T07:19:09.411Z,78.77
2022-12-17T07:21:54.208Z,78.91
2022-12-17T07:24:36.399Z,79.49
2022-12-17T07:27:18.756Z,80.69
2022-12-17T07:30:00.912Z,80.29
2022-12-17T07:32:43.083Z,79.85
2022-12-17T07:35:25.364Z,79.70
2022-12-17T07:38:17.332Z,78.79
2022-12-17T07:41:00.018Z,79.31
2022-12-17T07:43:42.285Z,79.49
2022-12-17T07:46:28.037Z,79.98
2022-12-17T07:49:10.202Z,80.01
2022-12-17T07:51:53.564Z,79.92
2022-12-17T07:54:40.392Z,79.41
2022-12-17T07:57:24.640Z,79.13
2022-12-17T08:00:08.893Z,79.25
2022-12-17T08:02:51.333Z,79.16
2022-12-17T08:05:33.407Z,79.49
2022-12-17T08:08:23.043Z,79.13
2022-12-17T08:11:07.878Z,79.74
2022-12-17T08:13:54.043Z,79.89
2022-12-17T08:16:40.145Z,79.99
2022-12-17T08:19:27.598Z,79.95
2022-12-17T08:22:19.697Z,79.81
2022-12-17T08:25:01.960Z,79.63
2022-12-17T08:27:46.804Z,79.38
2022-12-17T08:30:29.383Z,78.84
2022-12-17T08:33:23.654Z,78.43
2022-12-17T08:36:11.519Z,78.73
2022-12-17T08:38:57.215Z,78.82
2022-12-17T08:41:43.162Z,78.80
2022-12-17T08:44:28.972Z,79.00
2022-12-17T08:47:12.020Z,78.75
2022-12-17T08:49:57.982Z,78.67
2022-12-17T08:52:44.004Z,78.66
2022-12-17T08:55:30.000Z,78.59
2022-12-17T08:58:14.483Z,79.13
2022-12-17T09:01:02.647Z,79.19
2022-12-17T09:03:44.918Z,79.12
2022-12-17T09:06:35.938Z,79.25
2022-12-17T09:09:22.715Z,79.79
2022-12-17T09:12:05.025Z,79.74
2022-12-17T09:14:50.993Z,79.25
2022-12-17T09:17:35.774Z,79.23
2022-12-17T09:20:18.472Z,79.42
2022-12-17T09:23:03.938Z,79.27
2022-12-17T09:25:47.171Z,79.31
2022-12-17T09:28:29.366Z,79.78
2022-12-17T09:31:14.651Z,80.18
2022-12-17T09:33:59.703Z,80.12
2022-12-17T09:36:44.285Z,80.79
2022-12-17T09:39:30.291Z,81.06
2022-12-17T09:42:21.971Z,81.17
2022-12-17T09:45:09.049Z,81.02
2022-12-17T09:48:06.761Z,80.80
2022-12-17T09:50:51.870Z,81.05
2022-12-17T09:53:40.143Z,80.97
2022-12-17T09:56:26.288Z,81.38
2022-12-17T09:59:12.024Z,81.15
2022-12-17T10:01:58.202Z,81.84
2022-12-17T10:04:48.914Z,81.81
2022-12-17T10:07:37.852Z,81.54
2022-12-17T10:10:31.198Z,81.84
2022-12-17T10:13:13.207Z,82.02
2022-12-17T10:15:59.157Z,82.15
2022-12-17T10:18:44.516Z,82.53
2022-12-17T10:21:27.222Z,82.54
2022-12-17T10:24:23.470Z,83.22
2022-12-17T10:27:17.344Z,83.72
2022-12-17T10:30:00.518Z,83.92
2022-12-17T10:32:43.477Z,84.06
2022-12-17T10:35:34.887Z,84.07
2022-12-17T10:38:28.307Z,84.49
2022-12-17T10:41:18.879Z,84.17
2022-12-17T10:44:05.145Z,84.76
2022-12-17T10:46:52.191Z,84.75
2022-12-17T10:49:40.141Z,85.05
2022-12-17T10:52:49.417Z,85.25
2022-12-17T10:55:38.002Z,85.73
2022-12-17T10:58:29.363Z,86.38
2022-12-17T11:01:15.281Z,86.73
2022-12-17T11:04:05.414Z,86.55
2022-12-17T11:06:50.119Z,86.58
2022-12-17T11:09:53.919Z,86.23
2022-12-17T11:12:47.523Z,86.36
2022-12-17T11:15:37.505Z,86.30
2022-12-17T11:18:27.972Z,86.30
2022-12-17T11:21:19.762Z,86.54
2022-12-17T11:24:12.778Z,86.42
2022-12-17T11:27:03.065Z,86.28
2022-12-17T11:29:46.341Z,86.59
2022-12-17T11:33:05.408Z,86.20
2022-12-17T11:35:55.081Z,86.44
2022-12-17T11:38:48.243Z,85.90
2022-12-17T11:41:36.404Z,86.07
2022-12-17T11:44:26.718Z,85.85
2022-12-17T11:47:20.256Z,83.78
2022-12-17T11:50:14.315Z,83.79
2022-12-17T11:53:04.764Z,84.66
2022-12-17T11:55:56.156Z,85.26
2022-12-17T11:58:48.853Z,85.03
2022-12-17T12:01:39.191Z,84.91
2022-12-17T12:04:35.382Z,84.68
2022-12-17T12:07:31.449Z,84.55
2022-12-17T12:10:18.881Z,84.13
2022-12-17T12:13:12.997Z,83.90
2022-12-17T12:16:04.110Z,84.16
2022-12-17T12:18:57.800Z,84.29
2022-12-17T12:21:55.339Z,84.06
2022-12-17T12:24:55.680Z,84.23
2022-12-17T12:27:46.575Z,84.52
2022-12-17T12:30:32.150Z,84.06
2022-12-17T12:33:23.883Z,83.48
2022-12-17T12:36:08.864Z,83.60
2022-12-17T12:38:57.698Z,83.67
2022-12-17T12:41:59.003Z,83.64
2022-12-17T12:44:50.235Z,83.38
2022-12-17T12:47:38.510Z,83.20
2022-12-17T12:50:32.735Z,82.72
2022-12-17T12:53:15.456Z,82.52
2022-12-17T12:55:58.417Z,82.37
2022-12-17T12:58:45.780Z,81.57
2022-12-17T13:01:28.453Z,81.38
2022-12-17T13:04:12.777Z,80.65
2022-12-17T13:06:49.203Z,80.26
2022-12-17T13:09:35.487Z,80.23
2022-12-17T13:12:26.373Z,79.94
2022-12-17T13:15:12.342Z,79.94
2022-12-17T13:17:46.927Z,80.11
2022-12-17T13:20:30.620Z,79.60
2022-12-17T13:23:20.495Z,78.95
2022-12-17T13:25:50.295Z,79.83
2022-12-17T13:28:31.836Z,79.79
2022-12-17T13:31:16.411Z,79.86
2022-12-17T13:33:57.917Z,80.04
2022-12-17T13:36:36.061Z,80.13
2022-12-17T13:39:11.539Z,80.18
2022-12-17T13:41:41.358Z,80.62
2022-12-17T13:44:23.278Z,81.20
2022-12-17T13:46:56.917Z,81.61
2022-12-17T13:49:28.024Z,80.35
2022-12-17T13:52:11.487Z,80.51
2022-12-17T13:54:41.880Z,79.67
2022-12-17T13:57:12.903Z,79.05
2022-12-17T13:59:42.717Z,79.22
2022-12-17T14:02:28.139Z,79.32
2022-12-17T14:05:05.668Z,79.36
2022-12-17T14:07:41.822Z,79.26
2022-12-17T14:10:19.479Z,79.00
2022-12-17T14:12:47.278Z,79.66
2022-12-17T14:15:28.304Z,79.80
2022-12-17T14:18:01.577Z,80.09
2022-12-17T14:20:34.004Z,80.34
2022-12-17T14:23:06.492Z,80.31
2022-12-17T14:25:39.399Z,80.22
2022-12-17T14:28:23.008Z,80.70
2022-12-17T14:31:25.695Z,82.11
2022-12-17T14:33:48.739Z,81.24
2022-12-17T14:36:24.396Z,80.84
2022-12-17T14:38:57.682Z,81.02
2022-12-17T14:41:42.040Z,80.86
2022-12-17T14:44:23.142Z,80.65
2022-12-17T14:47:15.230Z,80.39
2022-12-17T14:50:00.996Z,80.69
2022-12-17T14:52:38.591Z,80.93
2022-12-17T14:55:27.704Z,79.97
2022-12-17T14:58:21.257Z,79.85
2022-12-17T15:00:58.795Z,80.16
2022-12-17T15:03:30.803Z,80.39
2022-12-17T15:06:10.054Z,79.74
2022-12-17T15:08:43.129Z,80.12
2022-12-17T15:11:21.100Z,79.81
2022-12-17T15:13:56.618Z,80.06
2022-12-17T15:16:27.833Z,80.13
2022-12-17T15:19:01.603Z,80.21
2022-12-17T15:21:37.249Z,80.55
2022-12-17T15:24:14.468Z,80.55
2022-12-17T15:26:45.287Z,80.37
2022-12-17T15:29:18.620Z,79.69
2022-12-17T15:31:48.721Z,80.00
2022-12-17T15:34:19.680Z,80.27
2022-12-17T15:36:52.048Z,80.60
2022-12-17T15:39:22.856Z,81.28
2022-12-17T15:42:05.100Z,81.57
2022-12-17T15:44:43.435Z,80.91
2022-12-17T15:47:13.296Z,80.55
2022-12-17T15:49:46.595Z,79.69
2022-12-17T15:52:22.172Z,79.20
2022-12-17T15:54:53.971Z,78.86
2022-12-17T15:57:23.813Z,78.65
2022-12-17T15:59:57.709Z,78.44
2022-12-17T16:02:30.928Z,78.26
2022-12-17T16:05:04.903Z,78.23
2022-12-17T16:07:38.043Z,78.22
2022-12-17T16:10:13.544Z,77.96
2022-12-17T16:12:44.175Z,78.25
2022-12-17T16:15:17.612Z,77.66
2022-12-17T16:17:48.672Z,77.80
2022-12-17T16:20:18.711Z,77.84
2022-12-17T16:22:53.163Z,77.86
2022-12-17T16:25:26.618Z,77.63
2022-12-17T16:27:56.566Z,77.88
2022-12-17T16:30:29.556Z,77.92
2022-12-17T16:33:02.643Z,77.85
2022-12-17T16:35:38.347Z,77.73
2022-12-17T16:38:12.770Z,77.71
2022-12-17T16:40:45.589Z,77.70
2022-12-17T16:43:15.477Z,78.05
2022-12-17T16:45:50.506Z,77.69
2022-12-17T16:48:22.044Z,77.88
2022-12-17T16:50:54.403Z,78.27
2022-12-17T16:53:26.808Z,78.30
2022-12-17T16:55:57.582Z,78.65
2022-12-17T16:58:31.588Z,78.66
2022-12-17T17:01:04.602Z,78.76
2022-12-17T17:03:34.422Z,79.30
2022-12-17T17:06:07.924Z,78.98
2022-12-17T17:08:41.753Z,79.18
2022-12-17T17:11:17.941Z,79.55
2022-12-17T17:13:48.154Z,79.83
2022-12-17T17:16:20.376Z,79.20
2022-12-17T17:18:54.338Z,78.72
2022-12-17T17:21:29.000Z,78.84
2022-12-17T17:24:02.933Z,78.91
2022-12-17T17:26:37.865Z,78.73
2022-12-17T17:29:08.355Z,78.24
2022-12-17T17:34:31.670Z,78.22
2022-12-17T17:37:01.448Z,77.91
2022-12-17T17:39:37.312Z,77.89
2022-12-17T17:42:10.864Z,78.51
2022-12-17T17:44:40.689Z,78.46
2022-12-17T17:47:13.634Z,77.96
2022-12-17T17:49:43.424Z,78.16
2022-12-17T17:52:14.435Z,78.15
2022-12-17T17:54:46.899Z,78.28
2022-12-17T17:57:16.692Z,78.16
2022-12-17T17:59:47.540Z,77.99
2022-12-17T18:02:20.730Z,78.04
2022-12-17T18:04:50.699Z,77.80
2022-12-17T18:07:28.386Z,77.75
2022-12-17T18:10:01.530Z,77.60
2022-12-17T18:12:49.839Z,77.19
2022-12-17T18:15:19.873Z,77.33
2022-12-17T18:17:54.288Z,77.31
2022-12-17T18:20:24.122Z,77.67
2022-12-17T18:22:53.931Z,77.42
2022-12-17T18:25:26.324Z,78.79
2022-12-17T18:27:56.674Z,78.89
2022-12-17T18:30:26.518Z,78.83
2022-12-17T18:32:57.700Z,78.68
2022-12-17T18:35:27.662Z,78.26
2022-12-17T18:38:04.398Z,78.15
2022-12-17T18:40:40.666Z,78.40
2022-12-17T18:43:24.556Z,78.73
2022-12-17T18:45:54.748Z,79.55
2022-12-17T18:48:28.604Z,79.25
2022-12-17T18:51:06.464Z,78.90
2022-12-17T18:53:37.341Z,78.94
2022-12-17T18:56:22.917Z,78.20
2022-12-17T18:59:03.176Z,83.99
2022-12-17T19:01:35.558Z,80.28
2022-12-17T19:04:07.029Z,78.26
2022-12-17T19:06:43.870Z,77.70
2022-12-17T19:09:20.138Z,77.43
2022-12-17T19:11:53.218Z,77.57
2022-12-17T19:14:27.620Z,77.40
2022-12-17T19:17:00.468Z,77.67
2022-12-17T19:19:30.808Z,77.62
2022-12-17T19:22:00.899Z,77.50
2022-12-17T19:24:31.113Z,77.29
2022-12-17T19:27:04.534Z,77.37
2022-12-17T19:29:46.226Z,77.46
2022-12-17T19:32:18.851Z,77.98
2022-12-17T19:34:48.691Z,78.16
2022-12-17T19:37:19.655Z,78.48
2022-12-17T19:39:49.938Z,78.85
2022-12-17T19:42:36.788Z,80.72
2022-12-17T19:45:07.879Z,79.37
2022-12-17T19:47:37.735Z,78.88
2022-12-17T19:50:08.840Z,78.65
2022-12-17T19:52:38.694Z,78.41
2022-12-17T19:55:09.201Z,78.41
2022-12-17T19:57:42.667Z,78.04
2022-12-17T20:00:16.622Z,78.08
2022-12-17T20:02:49.653Z,77.95
2022-12-17T20:05:23.636Z,77.77
2022-12-17T20:08:00.466Z,77.97
2022-12-17T20:10:34.976Z,77.83
2022-12-17T20:13:07.523Z,77.97
2022-12-17T20:15:37.323Z,77.73
2022-12-17T20:18:08.342Z,77.36
2022-12-17T20:20:38.213Z,77.58
2022-12-17T20:23:11.666Z,77.27
2022-12-17T20:25:44.653Z,77.24
2022-12-17T20:28:17.064Z,77.39
2022-12-17T20:30:46.901Z,77.51
2022-12-17T20:33:16.758Z,77.61
2022-12-17T20:35:49.679Z,77.63
2022-12-17T20:38:19.491Z,77.37
2022-12-17T20:40:53.683Z,84.50
2022-12-17T20:43:26.087Z,78.64
2022-12-17T20:45:57.187Z,77.13
2022-12-17T20:48:27.060Z,76.52
2022-12-17T20:50:56.934Z,76.41
2022-12-17T20:53:34.446Z,76.22
2022-12-17T20:56:10.329Z,76.14
2022-12-17T20:58:45.615Z,76.23
2022-12-17T21:01:21.215Z,76.05
2022-12-17T21:03:52.819Z,76.17
2022-12-17T21:06:27.423Z,76.56
2022-12-17T21:08:58.437Z,76.38
2022-12-17T21:11:33.872Z,76.36
2022-12-17T21:14:13.020Z,76.08
2022-12-17T21:16:47.490Z,75.95
2022-12-17T21:19:20.341Z,76.00
2022-12-17T21:21:56.625Z,76.16
2022-12-17T21:24:26.446Z,76.29
2022-12-17T21:26:56.253Z,76.21
2022-12-17T21:29:28.660Z,76.42
2022-12-17T21:32:00.511Z,76.42
2022-12-17T21:34:33.785Z,76.33
2022-12-17T21:37:05.086Z,75.86
2022-12-17T21:39:39.596Z,76.06
2022-12-17T21:42:25.118Z,75.60
2022-12-17T21:44:57.571Z,75.72
2022-12-17T21:47:30.734Z,75.85
2022-12-17T21:50:03.763Z,75.74
2022-12-17T21:52:33.611Z,75.88
2022-12-17T21:55:07.686Z,75.85
2022-12-17T21:57:39.024Z,75.77
2022-12-17T22:00:13.147Z,75.56
2022-12-17T22:02:43.137Z,76.19
2022-12-17T22:05:17.690Z,76.24
2022-12-17T22:07:52.474Z,76.60
2022-12-17T22:10:45.641Z,76.48
2022-12-17T22:13:27.085Z,77.22
2022-12-17T22:15:59.929Z,76.97
2022-12-17T22:18:30.016Z,76.37
2022-12-17T22:21:01.280Z,76.33
2022-12-17T22:23:34.936Z,76.28
2022-12-17T22:26:12.228Z,75.87
2022-12-17T22:28:43.106Z,76.06
2022-12-17T22:31:28.510Z,75.82
2022-12-17T22:34:50.666Z,76.05
2022-12-17T22:38:40.694Z,76.13
2022-12-17T22:42:17.242Z,76.08
2022-12-17T22:44:46.465Z,76.10
2022-12-17T22:45:41.214Z,76.32
2022-12-17T22:48:15.053Z,76.29
2022-12-17T22:51:05.597Z,76.09
2022-12-17T22:53:36.648Z,76.12
2022-12-17T22:56:19.188Z,75.93
2022-12-17T22:59:01.993Z,76.34
2022-12-17T23:01:32.025Z,76.75
2022-12-17T23:04:05.657Z,76.62
2022-12-17T23:06:41.506Z,76.78
2022-12-17T23:09:11.496Z,77.45
2022-12-17T23:11:41.618Z,77.57
2022-12-17T23:14:18.501Z,77.33
2022-12-17T23:16:48.666Z,77.10
2022-12-17T23:19:21.048Z,76.46
2022-12-17T23:21:57.419Z,76.71
2022-12-17T23:24:30.683Z,76.51
2022-12-17T23:27:01.609Z,84.01
2022-12-17T23:29:32.608Z,76.31
2022-12-17T23:32:05.668Z,76.30
2022-12-17T23:34:38.463Z,76.07
2022-12-17T23:37:08.259Z,76.19
2022-12-17T23:39:38.199Z,75.76
2022-12-17T23:42:14.450Z,75.86
2022-12-17T23:44:47.703Z,75.62
2022-12-17T23:47:20.880Z,76.29
2022-12-17T23:49:54.402Z,77.00
2022-12-17T23:52:24.275Z,77.36
2022-12-17T23:54:55.166Z,77.99
2022-12-17T23:57:25.011Z,79.58
2022-12-17T23:59:54.802Z,80.42
